Time;durP1;ratioP1;P1;durP2;ratioP2;P2;SDS_P1;SDS_P2;PMS_P1;PMS_P2;Temp;Humidity;BMP_temperature;BMP_pressure;BME280_temperature;BME280_humidity;BME280_pressure;Samples;Min_cycle;Max_cycle;Signal;HPM_P1;HPM_P2
2021/05/06 05:07:50;;;;;;;4.10;2.55;;;;;;;17.70;47.83;99057.27;1809915;77;21999;-62
2021/05/06 05:17:43;;;;;;;4.05;2.85;;;;;;;18.28;46.50;99058.73;1804551;77;21352;-64
2021/05/06 05:25:37;;;;;;;5.45;2.70;;;;;;;19.04;45.48;99055.15;1800073;77;21585;-63
2021/05/06 05:28:06;;;;;;;4.67;2.58;;;;;;;19.20;44.59;99042.77;1810161;77;21654;-64
2021/05/06 05:30:37;;;;;;;9.70;2.22;;;;;;;19.37;44.31;99043.59;1813315;77;21071;-66
2021/05/06 05:33:11;;;;;;;4.90;2.55;;;;;;;19.56;43.89;99046.42;1806264;77;21557;-64
2021/05/06 05:35:51;;;;;;;4.67;2.47;;;;;;;19.78;43.33;99039.10;1806450;78;21587;-64
2021/05/06 05:38:26;;;;;;;6.35;2.60;;;;;;;19.91;42.87;99024.87;1812970;77;21068;-67
2021/05/06 05:43:49;;;;;;;5.03;2.30;;;;;;;20.20;42.45;99043.26;1806646;78;21029;-67
2021/05/06 05:56:47;;;;;;;5.95;2.22;;;;;;;20.26;41.26;99046.55;1808468;77;21047;-65
2021/05/06 05:59:15;;;;;;;7.65;4.12;;;;;;;19.73;42.13;99054.63;1704245;81;21222;-66
2021/05/06 06:01:47;;;;;;;6.55;3.00;;;;;;;19.25;42.93;99057.61;1775879;78;21014;-63
2021/05/06 06:04:16;;;;;;;2.58;2.37;;;;;;;18.87;44.16;99059.56;1776383;80;21627;-68
2021/05/06 06:06:45;;;;;;;5.30;2.37;;;;;;;18.54;44.75;99059.47;1773285;80;21063;-63
2021/05/06 06:09:14;;;;;;;2.50;2.30;;;;;;;18.23;45.34;99067.11;1772428;78;21663;-62
2021/05/06 06:11:42;;;;;;;4.55;2.87;;;;;;;17.94;45.88;99064.02;1777374;80;21963;-65
2021/05/06 06:14:10;;;;;;;4.62;2.58;;;;;;;17.62;46.46;99070.69;1742919;81;21700;-66
2021/05/06 06:16:41;;;;;;;4.33;3.45;;;;;;;17.31;47.05;99065.04;1764408;78;21560;-68
2021/05/06 06:19:10;;;;;;;4.78;2.60;;;;;;;17.00;47.68;99073.00;1770638;80;21211;-66
2021/05/06 06:22:00;;;;;;;10.35;2.83;;;;;;;16.76;48.55;99063.08;1770070;80;21553;-66
2021/05/06 06:24:25;;;;;;;10.95;4.47;;;;;;;16.59;49.09;99069.09;1781329;78;21955;-67
2021/05/06 06:26:59;;;;;;;4.50;3.33;;;;;;;16.44;49.72;99079.75;1727356;81;21036;-72
2021/05/06 06:29:33;;;;;;;5.53;2.92;;;;;;;16.38;49.99;99077.74;1752365;81;20947;-69
2021/05/06 06:32:04;;;;;;;4.35;2.55;;;;;;;16.31;50.25;99074.38;1756715;81;21587;-63
2021/05/06 06:34:33;;;;;;;5.97;2.77;;;;;;;16.26;50.49;99084.98;1747687;81;20994;-71
2021/05/06 06:37:01;;;;;;;4.53;3.52;;;;;;;16.13;50.98;99072.66;1744196;81;22315;-66
2021/05/06 06:39:32;;;;;;;4.80;3.58;;;;;;;16.04;51.47;99073.52;1759876;80;21073;-64
2021/05/06 06:42:00;;;;;;;3.95;2.80;;;;;;;16.01;51.53;99078.08;1763444;80;21535;-67
2021/05/06 06:44:30;;;;;;;4.75;2.67;;;;;;;15.98;51.79;99084.96;1781137;78;21484;-64
2021/05/06 06:47:06;;;;;;;6.15;3.20;;;;;;;15.91;52.23;99087.81;1766819;81;21475;-68
2021/05/06 06:49:38;;;;;;;3.80;3.00;;;;;;;15.85;52.51;99098.05;1764616;80;21611;-66
2021/05/06 06:52:08;;;;;;;3.72;2.77;;;;;;;15.79;52.76;99100.75;1748669;81;21033;-66
2021/05/06 06:54:37;;;;;;;9.78;3.40;;;;;;;15.77;52.77;99097.92;1743035;81;21655;-67
2021/05/06 06:57:08;;;;;;;5.10;3.22;;;;;;;15.70;53.01;99100.77;1758143;80;21544;-65
2021/05/06 06:59:37;;;;;;;5.03;3.25;;;;;;;15.62;53.76;99114.59;1741546;82;21067;-63
2021/05/06 07:02:05;;;;;;;3.55;2.98;;;;;;;15.54;53.75;99126.27;1732750;81;22250;-66
2021/05/06 07:04:34;;;;;;;5.20;3.22;;;;;;;15.47;54.04;99125.16;1721912;82;21953;-65
2021/05/06 07:07:03;;;;;;;8.98;3.27;;;;;;;15.42;54.31;99124.26;1728184;82;21497;-64
2021/05/06 07:09:34;;;;;;;6.65;4.20;;;;;;;15.39;54.40;99120.60;1736415;82;21606;-68
2021/05/06 07:12:06;;;;;;;5.20;3.75;;;;;;;15.37;54.23;99141.38;1762815;80;21042;-67
2021/05/06 07:14:36;;;;;;;7.87;4.47;;;;;;;15.31;54.35;99142.75;1771606;80;21515;-64
2021/05/06 07:17:24;;;;;;;5.87;3.30;;;;;;;15.28;54.48;99149.10;1761140;80;21210;-63
2021/05/06 07:20:07;;;;;;;4.25;3.50;;;;;;;15.29;54.64;99150.76;1754881;79;21044;-64
2021/05/06 07:22:31;;;;;;;3.77;3.10;;;;;;;15.25;54.74;99152.00;1736215;81;21030;-61
2021/05/06 07:25:01;;;;;;;7.20;3.33;;;;;;;15.26;54.76;99153.66;1763258;80;21522;-65
2021/05/06 07:27:31;;;;;;;7.00;4.30;;;;;;;15.30;54.58;99155.04;1769489;80;22193;-67
2021/05/06 07:30:04;;;;;;;5.45;3.20;;;;;;;15.34;54.68;99158.22;1770033;79;21085;-60
2021/05/06 07:32:33;;;;;;;5.62;3.20;;;;;;;15.41;54.39;99161.13;1747087;79;22640;-65
2021/05/06 07:35:05;;;;;;;7.33;5.42;;;;;;;15.47;54.67;99168.45;1756375;79;21032;-68
2021/05/06 07:37:35;;;;;;;6.87;4.80;;;;;;;15.50;54.35;99174.73;1770402;79;21166;-63
2021/05/06 07:40:07;;;;;;;5.20;3.55;;;;;;;15.47;54.16;99184.19;1754062;79;22333;-62
2021/05/06 07:42:39;;;;;;;4.75;3.65;;;;;;;15.42;54.31;99179.83;1751493;80;21561;-61
2021/05/06 07:45:10;;;;;;;5.03;3.87;;;;;;;15.35;54.56;99189.56;1815313;78;21528;-68
2021/05/06 07:47:41;;;;;;;4.97;3.65;;;;;;;15.30;54.72;99197.48;1730827;82;20975;-66
2021/05/06 07:50:12;;;;;;;5.00;3.65;;;;;;;15.24;54.97;99201.96;1722521;82;20937;-65
2021/05/06 07:52:43;;;;;;;5.20;3.67;;;;;;;15.18;55.31;99211.23;1765913;79;21209;-65
2021/05/06 07:55:15;;;;;;;5.53;3.60;;;;;;;15.14;55.73;99220.33;1752627;80;21057;-65
2021/05/06 07:57:44;;;;;;;6.40;3.98;;;;;;;15.11;56.03;99214.52;1794943;78;21606;-64
2021/05/06 08:00:18;;;;;;;10.30;4.37;;;;;;;15.07;56.10;99223.62;1807180;79;21058;-65
2021/05/06 08:02:48;;;;;;;6.87;3.70;;;;;;;15.00;56.43;99223.31;1802800;79;21045;-65
2021/05/06 08:05:17;;;;;;;4.53;3.47;;;;;;;14.96;56.66;99230.63;1799185;79;22464;-63
2021/05/06 08:07:46;;;;;;;4.50;3.62;;;;;;;14.93;56.88;99236.61;1739528;82;21650;-61
2021/05/06 08:10:16;;;;;;;7.17;4.22;;;;;;;14.88;57.12;99243.55;1735726;82;21049;-65
2021/05/06 08:12:45;;;;;;;7.35;4.75;;;;;;;14.87;57.48;99250.23;1737494;82;21612;-63
2021/05/06 08:18:37;;;;;;;4.08;2.92;;;;;;;14.79;58.20;99248.78;1754067;76;21074;-68
2021/05/06 08:21:06;;;;;;;7.12;2.60;;;;;;;14.71;58.25;99266.95;1742820;81;21114;-71
2021/05/06 08:23:35;;;;;;;2.47;2.08;;;;;;;14.60;58.35;99276.55;1748125;80;21620;-69
2021/05/06 08:26:04;;;;;;;1.80;1.70;;;;;;;14.51;57.96;99273.39;1750956;77;21207;-64
2021/05/06 08:28:34;;;;;;;3.22;1.85;;;;;;;14.44;57.82;99272.23;1766333;80;21597;-61
2021/05/06 08:31:03;;;;;;;2.10;1.22;;;;;;;14.43;57.89;99277.61;1776023;80;23146;-62
2021/05/06 08:36:41;;;;;;;3.20;2.80;;;;;;;14.62;58.17;99282.48;1765932;78;20959;-79
2021/05/06 08:39:10;;;;;;;2.00;1.90;;;;;;;14.84;58.04;99296.38;1741292;81;21558;-65
2021/05/06 08:41:40;;;;;;;1.52;1.42;;;;;;;14.98;58.06;99297.34;1803347;79;20934;-79
2021/05/06 08:44:11;;;;;;;3.00;1.57;;;;;;;15.14;58.06;99316.52;1800581;79;22064;-79
2021/05/06 08:47:01;;;;;;;2.33;1.90;;;;;;;15.20;58.31;99319.90;1790041;79;21578;-74
2021/05/06 08:49:12;;;;;;;4.42;1.72;;;;;;;15.17;58.54;99330.20;1796781;79;21025;-73
2021/05/06 08:51:41;;;;;;;3.35;1.77;;;;;;;15.05;58.78;99327.80;1786844;79;21565;-74
2021/05/06 08:54:10;;;;;;;1.67;1.57;;;;;;;14.83;58.84;99330.09;1707563;82;21609;-76
2021/05/06 08:56:39;;;;;;;2.22;1.70;;;;;;;14.64;60.02;99338.22;1724046;82;21956;-71
2021/05/06 08:59:09;;;;;;;1.70;1.60;;;;;;;14.49;60.54;99343.89;1796274;79;21547;-70
2021/05/06 09:01:38;;;;;;;1.85;1.20;;;;;;;14.35;61.18;99347.17;1792702;79;20989;-64
2021/05/06 09:04:06;;;;;;;1.70;1.60;;;;;;;14.20;60.80;99354.13;1716986;83;20942;-66
2021/05/06 09:06:35;;;;;;;1.57;1.47;;;;;;;14.07;61.02;99345.13;1796404;79;21503;-67
2021/05/06 09:09:06;;;;;;;2.15;1.50;;;;;;;14.05;61.36;99354.06;1783264;79;22240;-74
2021/05/06 09:11:51;;;;;;;3.92;1.40;;;;;;;14.06;62.14;99347.88;1708320;82;21018;-83
2021/05/06 09:14:10;;;;;;;3.27;1.80;;;;;;;14.05;62.25;99355.38;1789614;79;21488;-66
2021/05/06 09:16:42;;;;;;;2.33;1.80;;;;;;;14.01;63.15;99348.25;1786971;79;21159;-82
2021/05/06 09:19:15;;;;;;;2.95;2.10;;;;;;;13.97;63.87;99367.32;1796482;79;21062;-69
2021/05/06 09:21:49;;;;;;;1.72;1.62;;;;;;;13.93;64.73;99368.52;1726758;82;21330;-70
2021/05/06 09:24:24;;;;;;;1.70;1.60;;;;;;;13.88;65.95;99385.06;1791987;79;21571;-74
2021/05/06 09:27:00;;;;;;;1.42;1.32;;;;;;;13.81;66.35;99390.43;1720915;82;21069;-71
2021/05/06 09:29:42;;;;;;;2.40;2.20;;;;;;;13.75;66.40;99394.01;1721758;82;21064;-76
2021/05/06 09:32:19;;;;;;;3.17;1.70;;;;;;;13.70;66.81;99386.52;1721026;82;21054;-71
2021/05/06 09:34:54;;;;;;;1.50;1.40;;;;;;;13.68;67.21;99391.04;1787683;79;22198;-69
2021/05/06 09:37:29;;;;;;;1.70;1.60;;;;;;;13.67;67.32;99390.69;1808983;79;21009;-73
2021/05/06 09:40:08;;;;;;;1.65;1.55;;;;;;;13.71;67.79;99383.42;1813641;77;21487;-69
2021/05/06 09:42:47;;;;;;;1.52;1.42;;;;;;;13.73;67.83;99395.91;1785890;79;20930;-81
2021/05/06 09:45:26;;;;;;;1.92;1.72;;;;;;;13.74;67.72;99408.04;1768594;80;20943;-79
2021/05/06 09:48:16;;;;;;;2.15;2.05;;;;;;;13.77;67.48;99406.49;1755430;81;21373;-76
2021/05/06 09:51:01;;;;;;;6.60;2.10;;;;;;;13.79;67.49;99404.11;1755930;80;21677;-84
2021/05/06 09:53:32;;;;;;;2.25;2.05;;;;;;;13.81;67.91;99403.99;1750121;81;21061;-76
2021/05/06 09:58:38;;;;;;;2.85;2.62;;;;;;;13.86;67.58;99407.08;1826819;77;22338;-73
2021/05/06 10:01:13;;;;;;;3.70;3.40;;;;;;;13.85;67.89;99422.42;1790298;78;21845;-74
2021/05/06 10:03:41;;;;;;;3.10;2.42;;;;;;;13.88;67.76;99436.10;1820747;78;22008;-71
2021/05/06 10:06:12;;;;;;;2.92;2.15;;;;;;;13.90;67.07;99439.91;1747238;81;21612;-68
2021/05/06 10:08:42;;;;;;;2.58;2.02;;;;;;;13.91;67.26;99442.88;1784403;79;20982;-69
2021/05/06 10:11:19;;;;;;;4.20;2.02;;;;;;;13.96;67.56;99446.80;1791501;79;21629;-68
2021/05/06 10:13:49;;;;;;;3.00;1.57;;;;;;;14.05;67.51;99456.16;1776920;80;21042;-69
2021/05/06 10:16:18;;;;;;;1.37;1.30;;;;;;;14.09;66.41;99453.18;1780481;80;21658;-68
2021/05/06 10:18:47;;;;;;;3.50;3.20;;;;;;;14.13;65.85;99462.45;1780007;80;21562;-68
2021/05/06 10:21:18;;;;;;;2.42;2.22;;;;;;;14.17;65.79;99465.19;1758666;80;21665;-68
2021/05/06 10:23:50;;;;;;;2.83;2.15;;;;;;;14.22;65.59;99460.41;1725974;83;20914;-69
2021/05/06 10:26:19;;;;;;;2.45;1.40;;;;;;;14.26;65.50;99455.29;1758125;81;20946;-68
2021/05/06 10:28:50;;;;;;;1.87;1.55;;;;;;;14.30;65.89;99461.95;1758279;81;22156;-66
2021/05/06 10:31:19;;;;;;;1.65;1.55;;;;;;;14.36;66.09;99461.94;1758249;81;21526;-70
2021/05/06 10:33:48;;;;;;;4.80;4.05;;;;;;;14.51;65.89;99465.94;1758283;81;21490;-69
2021/05/06 10:36:18;;;;;;;2.15;1.95;;;;;;;14.72;65.20;99473.02;1758159;81;20914;-68
2021/05/06 10:38:46;;;;;;;1.62;1.52;;;;;;;14.95;63.51;99475.87;1735167;82;21640;-68
2021/05/06 10:41:30;;;;;;;1.37;1.35;;;;;;;15.11;62.44;99468.40;1763962;80;21581;-68
2021/05/06 10:44:04;;;;;;;1.35;1.25;;;;;;;15.23;61.02;99477.00;1755583;81;21602;-68
2021/05/06 10:46:58;;;;;;;1.32;1.22;;;;;;;15.27;60.30;99474.48;1740279;81;21145;-67
2021/05/06 10:49:44;;;;;;;1.70;1.60;;;;;;;15.24;59.79;99474.25;1752632;81;21589;-67
2021/05/06 10:52:14;;;;;;;1.55;1.47;;;;;;;15.19;59.88;99471.70;1752019;81;21671;-67
2021/05/06 10:54:50;;;;;;;2.05;1.42;;;;;;;15.18;59.98;99475.27;1781786;80;21363;-65
2021/05/06 10:57:28;;;;;;;1.60;1.32;;;;;;;15.20;60.19;99468.91;1742503;81;21101;-64
2021/05/06 10:59:57;;;;;;;1.02;1.02;;;;;;;15.27;59.64;99471.38;1805701;78;21498;-64
2021/05/06 11:02:45;;;;;;;1.10;1.10;;;;;;;15.38;59.29;99463.91;1763743;80;21157;-65
2021/05/06 11:05:24;;;;;;;1.50;1.40;;;;;;;15.49;58.38;99464.31;1754108;81;21596;-66
2021/05/06 11:08:20;;;;;;;3.52;1.82;;;;;;;15.64;58.62;99463.02;1743594;80;22079;-63
2021/05/06 11:10:54;;;;;;;1.72;1.40;;;;;;;15.87;58.11;99461.88;1761587;80;21487;-65
2021/05/06 11:13:26;;;;;;;1.32;1.27;;;;;;;16.17;57.72;99462.28;1771950;80;20962;-70
2021/05/06 11:16:18;;;;;;;2.15;1.95;;;;;;;16.38;57.73;99464.81;1788637;80;20951;-66
2021/05/06 11:18:52;;;;;;;1.55;1.45;;;;;;;16.58;55.20;99461.70;1743919;81;21825;-67
2021/05/06 11:21:34;;;;;;;1.42;1.32;;;;;;;16.71;52.99;99464.09;1740068;82;21607;-67
2021/05/06 11:24:25;;;;;;;1.40;1.30;;;;;;;16.78;51.91;99469.97;1779486;80;21044;-65
2021/05/06 11:27:10;;;;;;;1.65;1.55;;;;;;;16.86;50.41;99470.56;1756083;81;21540;-70
2021/05/06 11:29:42;;;;;;;7.15;4.67;;;;;;;16.87;50.26;99465.66;1745405;81;21452;-72
2021/05/06 11:32:37;;;;;;;2.12;2.02;;;;;;;16.83;49.44;99469.05;1774072;80;20950;-74
2021/05/06 11:35:06;;;;;;;1.10;1.10;;;;;;;16.79;49.53;99475.58;1762032;80;22655;-76
2021/05/06 11:37:36;;;;;;;2.65;1.40;;;;;;;16.81;50.90;99464.41;1730081;81;21592;-79
2021/05/06 11:40:08;;;;;;;1.35;1.25;;;;;;;16.91;50.63;99465.23;1747603;80;21559;-75
2021/05/06 11:42:41;;;;;;;1.57;1.30;;;;;;;17.01;49.25;99463.91;1740905;81;20938;-71
2021/05/06 11:45:27;;;;;;;1.15;1.10;;;;;;;17.08;47.62;99463.70;1737228;81;21019;-68
2021/05/06 11:47:55;;;;;;;1.85;1.75;;;;;;;17.18;47.86;99463.69;1708823;83;21388;-75
2021/05/06 11:50:33;;;;;;;1.57;1.47;;;;;;;17.26;46.24;99477.77;1779473;80;20989;-73
2021/05/06 11:53:02;;;;;;;1.40;1.30;;;;;;;17.31;46.08;99479.48;1770950;80;21053;-74
2021/05/06 11:55:36;;;;;;;1.20;1.20;;;;;;;17.36;45.58;99485.64;1787633;80;20931;-73
2021/05/06 11:58:06;;;;;;;1.57;1.47;;;;;;;17.44;46.28;99477.04;1740343;81;21489;-74
2021/05/06 12:00:36;;;;;;;1.40;1.30;;;;;;;17.58;46.13;99475.27;1798044;78;21726;-84
2021/05/06 12:03:09;;;;;;;1.42;1.20;;;;;;;17.71;44.79;99469.69;1801807;79;21056;-76
2021/05/06 12:05:56;;;;;;;3.17;1.40;;;;;;;17.84;45.12;99473.66;1807652;78;21029;-67
2021/05/06 12:08:31;;;;;;;1.37;1.25;;;;;;;17.97;44.03;99477.27;1784762;78;21608;-72
2021/05/06 12:11:03;;;;;;;1.47;1.30;;;;;;;18.03;43.64;99469.24;1743647;82;21906;-76
2021/05/06 12:13:35;;;;;;;1.10;1.10;;;;;;;18.06;43.12;99471.59;1749521;81;21004;-82
2021/05/06 12:16:20;;;;;;;2.27;1.70;;;;;;;18.02;41.11;99469.73;1817793;78;20954;-86
2021/05/06 12:19:12;;;;;;;1.45;1.35;;;;;;;17.93;40.56;99467.52;1795659;78;21011;-81
2021/05/06 12:21:47;;;;;;;1.35;1.27;;;;;;;17.85;40.24;99457.36;1802121;78;21068;-76
2021/05/06 12:24:37;;;;;;;2.95;1.07;;;;;;;17.76;41.19;99454.28;1811954;78;21042;-69
2021/05/06 12:27:27;;;;;;;1.20;1.10;;;;;;;17.70;40.71;99457.49;1811357;79;21359;-62
2021/05/06 12:30:02;;;;;;;2.70;1.30;;;;;;;17.62;40.55;99462.96;1815340;78;21005;-76
2021/05/06 12:32:37;;;;;;;1.00;1.00;;;;;;;17.57;40.08;99460.45;1814056;78;21537;-84
2021/05/06 12:35:06;;;;;;;2.33;1.12;;;;;;;17.58;39.93;99460.79;1820236;78;21420;-71
2021/05/06 12:37:37;;;;;;;0.85;0.85;;;;;;;17.61;39.91;99465.73;1803354;78;20962;-72
2021/05/06 12:40:13;;;;;;;1.50;1.37;;;;;;;17.64;39.30;99469.40;1748608;81;22341;-79
2021/05/06 12:42:42;;;;;;;4.10;2.02;;;;;;;17.63;38.38;99469.89;1813688;78;21034;-80
2021/05/06 12:45:19;;;;;;;3.33;1.65;;;;;;;17.64;39.43;99466.77;1807729;78;20974;-75
2021/05/06 12:47:50;;;;;;;4.17;1.87;;;;;;;17.61;39.33;99471.83;1806553;78;20938;-72
2021/05/06 12:50:26;;;;;;;3.08;1.60;;;;;;;17.51;39.70;99474.19;1812854;78;20939;-76
2021/05/06 12:52:55;;;;;;;;;;;;;;;17.41;39.93;99472.06;1736145;81;21442;-80
2021/05/06 12:55:30;;;;;;;1.50;1.40;;;;;;;17.29;40.03;99473.54;1726984;82;20140;-81
2021/05/06 12:58:14;;;;;;;1.53;1.40;;;;;;;17.18;40.20;99468.46;1717000;82;20950;-78
2021/05/06 13:00:46;;;;;;;1.50;1.20;;;;;;;17.07;41.01;99467.78;1815649;78;21084;-80
2021/05/06 13:03:16;;;;;;;1.50;1.40;;;;;;;17.00;40.74;99467.03;1801694;78;21165;-80
2021/05/06 13:05:47;;;;;;;2.58;1.55;;;;;;;16.95;40.69;99465.30;1795061;78;21710;-72
2021/05/06 13:08:15;;;;;;;2.35;1.52;;;;;;;16.93;40.57;99462.47;1801221;78;21005;-82
2021/05/06 13:10:47;;;;;;;1.98;1.37;;;;;;;16.88;39.89;99471.25;1808195;78;21022;-68
2021/05/06 13:13:44;;;;;;;1.80;1.57;;;;;;;16.80;39.70;99465.38;1806906;78;21000;-66
2021/05/06 13:16:16;;;;;;;2.08;1.15;;;;;;;16.72;40.11;99472.32;1813709;78;21033;-75
2021/05/06 13:19:05;;;;;;;1.10;1.00;;;;;;;16.59;38.72;99470.77;1802536;78;21358;-71
2021/05/06 13:21:34;;;;;;;2.20;1.60;;;;;;;16.50;38.38;99469.44;1734651;82;21065;-73
2021/05/06 13:24:07;;;;;;;3.22;1.35;;;;;;;16.44;37.83;99468.66;1726063;82;21026;-73
2021/05/06 13:26:39;;;;;;;0.90;0.90;;;;;;;16.40;37.90;99464.64;1748702;82;21100;-70
2021/05/06 13:29:15;;;;;;;3.02;1.00;;;;;;;16.36;37.13;99465.43;1739482;82;20966;-66
2021/05/06 13:31:45;;;;;;;1.60;1.30;;;;;;;16.31;37.39;99473.72;1814945;78;21360;-71
2021/05/06 13:34:20;;;;;;;4.20;1.55;;;;;;;16.28;37.42;99469.22;1820875;78;20982;-82
2021/05/06 13:37:05;;;;;;;1.32;1.22;;;;;;;16.28;38.12;99474.47;1764956;79;20993;-73
2021/05/06 13:42:44;;;;;;;2.37;1.37;;;;;;;16.37;38.21;99472.83;1792762;76;20986;-65
2021/05/06 13:45:14;;;;;;;1.37;1.27;;;;;;;16.44;38.26;99478.69;1799919;79;22158;-85
2021/05/06 13:47:47;;;;;;;2.10;1.20;;;;;;;16.46;37.74;99478.08;1807153;79;21067;-83
2021/05/06 13:50:17;;;;;;;3.95;2.12;;;;;;;16.48;38.07;99477.45;1810302;78;20993;-74
2021/05/06 13:52:45;;;;;;;2.85;2.00;;;;;;;16.51;38.01;99477.66;1797692;78;21506;-74
2021/05/06 13:55:14;;;;;;;2.80;2.30;;;;;;;16.49;37.65;99481.74;1810073;79;21573;-77
2021/05/06 13:57:43;;;;;;;4.60;2.45;;;;;;;16.45;37.44;99486.09;1776692;79;22170;-72
2021/05/06 14:00:13;;;;;;;4.22;2.42;;;;;;;16.39;37.53;99482.24;1777172;79;21049;-73
2021/05/06 14:02:41;;;;;;;4.85;2.70;;;;;;;16.37;37.75;99481.55;1790186;79;21021;-78
2021/05/06 14:05:12;;;;;;;4.35;2.58;;;;;;;16.38;37.72;99483.20;1787542;79;20981;-71
2021/05/06 14:07:40;;;;;;;2.72;1.90;;;;;;;16.38;37.79;99486.31;1787946;79;20978;-70
2021/05/06 14:10:29;;;;;;;1.55;1.45;;;;;;;16.37;37.88;99478.92;1810903;79;22082;-71
